createdAt,value
2023-04-13T00:00:09.405Z,19.97
2023-04-13T00:02:39.299Z,19.98
2023-04-13T00:05:09.828Z,19.99
2023-04-13T00:07:40.056Z,19.95
2023-04-13T00:10:08.777Z,19.98
2023-04-13T00:12:38.768Z,19.98
2023-04-13T00:15:09.386Z,19.98
2023-04-13T00:17:37.906Z,19.98
2023-04-13T00:20:09.815Z,19.95
2023-04-13T00:22:38.994Z,19.96
2023-04-13T00:25:06.385Z,19.96
2023-04-13T00:27:33.043Z,19.95
2023-04-13T00:29:59.821Z,19.97
2023-04-13T00:32:26.776Z,19.95
2023-04-13T00:34:53.469Z,19.95
2023-04-13T00:37:23.953Z,19.96
2023-04-13T00:39:51.818Z,19.95
2023-04-13T00:42:21.689Z,19.96
2023-04-13T00:44:48.855Z,19.96
2023-04-13T00:47:18.897Z,19.96
2023-04-13T00:49:47.730Z,19.97
2023-04-13T00:52:14.658Z,19.97
2023-04-13T00:54:43.549Z,19.98
2023-04-13T00:57:12.382Z,20.00
2023-04-13T00:59:39.320Z,19.99
2023-04-13T01:02:08.377Z,19.99
2023-04-13T01:04:37.882Z,19.99
2023-04-13T01:07:27.473Z,19.99
2023-04-13T01:10:12.490Z,20.01
2023-04-13T01:12:56.832Z,20.02
2023-04-13T01:15:25.658Z,20.00
2023-04-13T01:18:00.612Z,20.02
2023-04-13T01:20:32.553Z,19.99
2023-04-13T01:23:01.418Z,20.00
2023-04-13T01:25:40.886Z,20.00
2023-04-13T01:28:09.390Z,20.00
2023-04-13T01:30:42.168Z,20.02
2023-04-13T01:33:09.760Z,19.99
2023-04-13T01:35:37.156Z,20.01
2023-04-13T01:38:07.134Z,20.01
2023-04-13T01:40:37.030Z,20.01
2023-04-13T01:43:08.533Z,20.01
2023-04-13T01:45:47.622Z,20.02
2023-04-13T01:48:52.309Z,20.03
2023-04-13T01:51:20.357Z,20.01
2023-04-13T01:53:49.208Z,20.01
2023-04-13T01:56:17.948Z,20.00
2023-04-13T01:58:44.566Z,20.01
2023-04-13T02:01:11.255Z,19.99
2023-04-13T02:03:43.282Z,20.00
2023-04-13T02:06:10.569Z,19.99
2023-04-13T02:08:42.450Z,19.99
2023-04-13T02:11:13.770Z,19.99
2023-04-13T02:13:44.539Z,19.98
2023-04-13T02:16:13.640Z,19.98
2023-04-13T02:18:42.584Z,19.97
2023-04-13T02:21:09.695Z,19.98
2023-04-13T02:23:37.127Z,19.98
2023-04-13T02:26:08.462Z,19.96
2023-04-13T02:28:40.331Z,19.98
2023-04-13T02:31:12.016Z,19.97
2023-04-13T02:33:39.892Z,19.97
2023-04-13T02:36:07.060Z,19.98
2023-04-13T02:38:37.325Z,19.98
2023-04-13T02:41:04.166Z,19.97
2023-04-13T02:43:36.035Z,19.96
2023-04-13T02:46:05.610Z,19.95
2023-04-13T02:48:37.051Z,19.95
2023-04-13T02:51:03.993Z,19.97
2023-04-13T02:53:30.741Z,19.97
2023-04-13T02:55:57.468Z,19.96
2023-04-13T02:58:26.763Z,19.93
2023-04-13T03:00:53.445Z,19.95
2023-04-13T03:03:20.518Z,19.94
2023-04-13T03:05:50.755Z,19.94
2023-04-13T03:08:17.470Z,19.92
2023-04-13T03:10:45.008Z,19.94
2023-04-13T03:13:16.377Z,19.93
2023-04-13T03:15:43.064Z,19.92
2023-04-13T03:18:09.745Z,19.91
2023-04-13T03:20:38.837Z,19.92
2023-04-13T03:23:10.695Z,19.92
2023-04-13T03:25:37.375Z,19.91
2023-04-13T03:28:07.131Z,19.89
2023-04-13T03:30:38.937Z,19.92
2023-04-13T03:33:07.763Z,19.91
2023-04-13T03:35:34.448Z,19.93
2023-04-13T03:38:04.325Z,19.91
2023-04-13T03:40:33.659Z,19.99
2023-04-13T03:43:05.605Z,19.97
2023-04-13T03:45:34.557Z,19.93
2023-04-13T03:48:01.342Z,19.91
2023-04-13T03:50:32.828Z,19.89
2023-04-13T03:53:04.129Z,19.85
2023-04-13T03:55:32.964Z,19.83
2023-04-13T03:57:59.660Z,19.81
2023-04-13T04:00:28.965Z,19.80
2023-04-13T04:02:57.911Z,19.80
2023-04-13T04:05:24.868Z,19.81
2023-04-13T04:07:51.562Z,19.79
2023-04-13T04:10:19.352Z,19.75
2023-04-13T04:12:46.060Z,19.74
2023-04-13T04:15:12.768Z,16.29
2023-04-13T04:17:40.128Z,14.32
2023-04-13T04:20:07.870Z,15.17
2023-04-13T04:22:35.168Z,16.57
2023-04-13T04:28:02.458Z,17.56
2023-04-13T04:30:33.900Z,17.75
2023-04-13T04:33:05.257Z,17.84
2023-04-13T04:35:37.339Z,17.95
2023-04-13T04:38:06.600Z,18.04
2023-04-13T04:40:38.439Z,18.11
2023-04-13T04:43:07.804Z,18.17
2023-04-13T04:45:36.330Z,18.26
2023-04-13T04:48:04.275Z,18.37
2023-04-13T04:50:31.126Z,18.40
2023-04-13T04:53:02.824Z,18.45
2023-04-13T04:55:31.923Z,18.51
2023-04-13T04:57:58.595Z,18.57
2023-04-13T05:00:30.411Z,18.61
2023-04-13T05:02:57.917Z,18.65
2023-04-13T05:05:25.516Z,18.71
2023-04-13T05:07:52.259Z,18.73
2023-04-13T05:10:21.133Z,18.77
2023-04-13T05:12:49.968Z,18.80
2023-04-13T05:15:16.850Z,18.82
2023-04-13T05:17:46.760Z,18.86
2023-04-13T05:20:16.243Z,18.91
2023-04-13T05:22:43.023Z,18.92
2023-04-13T05:25:12.831Z,18.95
2023-04-13T05:27:41.696Z,18.98
2023-04-13T05:30:11.029Z,18.99
2023-04-13T05:32:39.864Z,19.01
2023-04-13T05:35:07.147Z,19.04
2023-04-13T05:37:33.786Z,19.06
2023-04-13T05:40:00.497Z,19.07
2023-04-13T05:42:30.169Z,19.08
2023-04-13T05:44:56.935Z,19.11
2023-04-13T05:47:24.177Z,19.12
2023-04-13T05:49:53.083Z,19.14
2023-04-13T05:52:20.924Z,19.16
2023-04-13T05:54:49.942Z,19.18
2023-04-13T05:57:17.078Z,19.21
2023-04-13T05:59:46.753Z,19.20
2023-04-13T06:02:13.524Z,19.25
2023-04-13T06:04:43.600Z,19.27
2023-04-13T06:07:10.355Z,19.29
2023-04-13T06:09:36.982Z,19.31
2023-04-13T06:12:04.059Z,19.31
2023-04-13T06:14:32.930Z,19.37
2023-04-13T06:16:59.633Z,19.39
2023-04-13T06:19:29.115Z,19.41
2023-04-13T06:21:58.554Z,19.45
2023-04-13T06:24:25.351Z,19.50
2023-04-13T06:26:52.382Z,19.55
2023-04-13T06:29:21.287Z,19.58
2023-04-13T06:31:47.940Z,19.60
2023-04-13T06:34:14.745Z,19.63
2023-04-13T06:36:41.481Z,19.67
2023-04-13T06:39:09.462Z,19.71
2023-04-13T06:41:41.680Z,19.74
2023-04-13T06:44:08.763Z,19.77
2023-04-13T06:46:39.259Z,19.79
2023-04-13T06:49:08.087Z,19.83
2023-04-13T06:51:39.492Z,19.88
2023-04-13T06:54:06.645Z,19.90
2023-04-13T06:56:33.358Z,19.92
2023-04-13T06:59:02.855Z,19.95
2023-04-13T07:01:32.237Z,19.98
2023-04-13T07:04:04.305Z,20.01
2023-04-13T07:06:32.154Z,20.04
2023-04-13T07:09:03.618Z,20.09
2023-04-13T07:11:32.957Z,20.08
2023-04-13T07:14:02.180Z,20.13
2023-04-13T07:16:33.655Z,20.17
2023-04-13T07:19:02.786Z,20.19
2023-04-13T07:21:34.417Z,20.22
2023-04-13T07:24:03.536Z,20.23
2023-04-13T07:26:32.857Z,20.24
2023-04-13T07:28:59.696Z,20.26
2023-04-13T07:31:28.687Z,20.28
2023-04-13T07:33:57.613Z,20.28
2023-04-13T07:36:26.971Z,20.29
2023-04-13T07:38:53.637Z,20.28
2023-04-13T07:41:22.653Z,20.31
2023-04-13T07:43:51.693Z,20.31
2023-04-13T07:46:20.578Z,20.32
2023-04-13T07:48:51.979Z,20.34
2023-04-13T07:51:19.116Z,20.35
2023-04-13T07:53:45.886Z,20.34
2023-04-13T07:56:15.522Z,20.37
2023-04-13T07:58:44.514Z,20.37
2023-04-13T08:01:13.454Z,20.36
2023-04-13T08:03:40.352Z,20.37
2023-04-13T08:06:08.256Z,20.35
2023-04-13T08:08:37.295Z,20.37
2023-04-13T08:11:04.040Z,20.36
2023-04-13T08:13:30.797Z,20.34
2023-04-13T08:16:00.397Z,20.34
2023-04-13T08:18:32.138Z,20.35
2023-04-13T08:21:01.272Z,20.34
2023-04-13T08:23:32.797Z,20.36
2023-04-13T08:26:02.700Z,20.36
2023-04-13T08:28:32.600Z,20.37
2023-04-13T08:30:59.470Z,20.37
2023-04-13T08:33:28.399Z,20.41
2023-04-13T08:35:55.213Z,20.43
2023-04-13T08:38:24.065Z,20.45
2023-04-13T08:40:51.003Z,20.50
2023-04-13T08:43:23.397Z,20.52
2023-04-13T08:45:52.320Z,20.55
2023-04-13T08:48:23.460Z,20.58
2023-04-13T08:50:53.513Z,20.60
2023-04-13T08:53:20.147Z,20.66
2023-04-13T08:55:47.044Z,20.62
2023-04-13T08:58:16.228Z,20.59
2023-04-13T09:00:43.477Z,20.62
2023-04-13T09:03:14.298Z,20.63
2023-04-13T09:05:44.050Z,20.64
2023-04-13T09:08:17.136Z,20.65
2023-04-13T09:10:44.002Z,20.66
2023-04-13T09:13:12.919Z,20.67
2023-04-13T09:15:41.177Z,20.69
2023-04-13T09:18:11.533Z,20.69
2023-04-13T09:20:38.571Z,20.70
2023-04-13T09:23:17.062Z,20.72
2023-04-13T09:25:50.490Z,20.73
2023-04-13T09:28:20.383Z,20.75
2023-04-13T09:30:47.233Z,20.74
2023-04-13T09:33:18.144Z,20.73
2023-04-13T09:35:47.411Z,20.75
2023-04-13T09:38:16.177Z,20.76
2023-04-13T09:40:49.587Z,20.77
2023-04-13T09:43:17.265Z,20.77
2023-04-13T09:45:46.400Z,20.81
2023-04-13T09:48:24.573Z,20.80
2023-04-13T09:50:58.684Z,20.80
2023-04-13T09:53:29.357Z,20.83
2023-04-13T09:55:59.353Z,20.82
2023-04-13T09:58:26.544Z,20.85
2023-04-13T10:00:53.225Z,20.86
2023-04-13T10:03:22.431Z,20.87
2023-04-13T10:05:59.511Z,20.91
2023-04-13T10:08:38.046Z,20.92
2023-04-13T10:11:10.943Z,20.92
2023-04-13T10:13:43.758Z,20.92
2023-04-13T10:16:36.729Z,20.93
2023-04-13T10:19:25.122Z,20.95
2023-04-13T10:21:54.801Z,20.98
2023-04-13T10:24:24.016Z,20.97
2023-04-13T10:26:56.292Z,20.93
2023-04-13T10:29:29.900Z,20.95
2023-04-13T10:32:03.647Z,21.00
2023-04-13T10:34:32.007Z,20.98
2023-04-13T10:37:03.689Z,20.99
2023-04-13T10:39:37.776Z,20.99
2023-04-13T10:42:06.893Z,21.00
2023-04-13T10:44:50.572Z,20.98
2023-04-13T10:47:20.665Z,20.98
2023-04-13T10:49:48.551Z,20.97
2023-04-13T10:52:18.027Z,20.99
2023-04-13T10:54:49.309Z,20.97
2023-04-13T10:57:20.687Z,20.96
2023-04-13T10:59:57.876Z,20.94
2023-04-13T11:02:33.035Z,20.99
2023-04-13T11:05:00.514Z,20.96
2023-04-13T11:07:29.580Z,20.94
2023-04-13T11:12:29.208Z,20.92
2023-04-13T11:14:55.924Z,20.89
2023-04-13T11:17:25.383Z,20.87
2023-04-13T11:19:53.240Z,20.87
2023-04-13T11:22:23.764Z,20.86
2023-04-13T11:24:51.314Z,20.87
2023-04-13T11:27:21.195Z,20.88
2023-04-13T11:30:05.178Z,20.87
2023-04-13T11:32:40.185Z,20.85
2023-04-13T11:35:11.007Z,20.84
2023-04-13T11:37:45.774Z,20.83
2023-04-13T11:40:20.476Z,20.83
2023-04-13T11:42:53.377Z,20.81
2023-04-13T11:45:22.375Z,20.81
2023-04-13T11:47:52.444Z,20.79
2023-04-13T11:50:19.976Z,20.78
2023-04-13T11:52:49.286Z,20.79
2023-04-13T11:55:23.479Z,20.78
2023-04-13T11:57:51.376Z,20.77
2023-04-13T12:00:27.545Z,20.78
2023-04-13T12:03:02.287Z,20.77
2023-04-13T12:05:33.918Z,20.77
2023-04-13T12:08:04.810Z,20.75
2023-04-13T12:16:01.292Z,20.73
2023-04-13T12:18:38.019Z,20.71
2023-04-13T12:21:10.017Z,20.72
2023-04-13T12:23:40.164Z,20.70
2023-04-13T12:26:33.207Z,20.69
2023-04-13T12:28:56.777Z,20.68
2023-04-13T12:31:26.005Z,20.68
2023-04-13T12:33:54.870Z,20.68
2023-04-13T12:36:21.848Z,20.67
2023-04-13T12:38:48.521Z,20.67
2023-04-13T12:41:15.187Z,20.66
2023-04-13T12:43:41.900Z,20.65
2023-04-13T12:46:11.645Z,20.66
2023-04-13T12:48:38.491Z,20.63
2023-04-13T12:51:08.562Z,20.65
2023-04-13T12:53:36.125Z,20.62
2023-04-13T12:56:04.922Z,20.60
2023-04-13T12:58:35.527Z,20.62
2023-04-13T13:01:02.923Z,20.63
2023-04-13T13:03:33.556Z,20.62
2023-04-13T13:06:00.325Z,20.59
2023-04-13T13:08:34.925Z,20.60
2023-04-13T13:11:03.597Z,20.60
2023-04-13T13:13:32.614Z,20.59
2023-04-13T13:16:04.110Z,20.60
2023-04-13T13:18:47.061Z,20.59
2023-04-13T13:21:17.391Z,20.58
2023-04-13T13:23:46.475Z,20.56
2023-04-13T13:28:48.252Z,20.51
2023-04-13T13:31:15.467Z,20.57
2023-04-13T13:33:45.091Z,20.55
2023-04-13T13:36:14.711Z,20.57
2023-04-13T13:38:47.414Z,20.56
2023-04-13T13:41:16.389Z,20.56
2023-04-13T13:43:43.019Z,20.55
2023-04-13T13:46:09.778Z,20.55
2023-04-13T13:48:36.570Z,20.54
2023-04-13T13:51:07.535Z,20.54
2023-04-13T13:53:34.465Z,20.54
2023-04-13T13:56:03.299Z,20.54
2023-04-13T13:58:29.997Z,20.52
2023-04-13T14:00:59.516Z,20.52
2023-04-13T14:03:30.979Z,20.52
2023-04-13T14:05:59.929Z,20.52
2023-04-13T14:08:28.815Z,20.53
2023-04-13T14:10:55.565Z,20.53
2023-04-13T14:13:24.391Z,20.52
2023-04-13T14:15:53.364Z,20.55
2023-04-13T14:18:24.008Z,20.56
2023-04-13T14:23:37.524Z,20.57
2023-04-13T14:26:07.468Z,20.54
2023-04-13T14:28:37.327Z,20.53
2023-04-13T14:31:04.379Z,20.54
2023-04-13T14:33:31.167Z,20.54
2023-04-13T14:35:57.861Z,20.55
2023-04-13T14:38:24.891Z,20.55
2023-04-13T14:40:51.888Z,20.52
2023-04-13T14:43:18.537Z,20.52
2023-04-13T14:45:45.251Z,20.54
2023-04-13T14:48:11.983Z,20.52
2023-04-13T14:50:43.914Z,20.54
2023-04-13T14:53:10.567Z,20.55
2023-04-13T14:55:37.731Z,20.55
2023-04-13T14:58:06.738Z,20.52
2023-04-13T15:00:39.194Z,20.52
2023-04-13T15:03:07.820Z,20.53
2023-04-13T15:05:41.619Z,20.53
2023-04-13T15:08:08.800Z,20.55
2023-04-13T15:10:35.493Z,20.53
2023-04-13T15:13:03.311Z,20.54
2023-04-13T15:15:34.569Z,20.55
2023-04-13T15:18:03.139Z,20.54
2023-04-13T15:20:32.385Z,20.54
2023-04-13T15:22:59.051Z,20.50
2023-04-13T15:25:25.865Z,20.56
2023-04-13T15:27:56.884Z,20.57
2023-04-13T15:30:34.874Z,20.54
2023-04-13T15:33:05.038Z,20.55
2023-04-13T15:35:36.393Z,20.55
2023-04-13T15:38:03.341Z,20.55
2023-04-13T15:40:32.993Z,20.55
2023-04-13T15:43:02.273Z,20.55
2023-04-13T15:45:31.440Z,20.55
2023-04-13T15:48:00.710Z,20.55
2023-04-13T15:50:28.176Z,20.57
2023-04-13T15:52:57.458Z,20.55
2023-04-13T15:55:26.794Z,20.54
2023-04-13T15:57:57.264Z,20.52
2023-04-13T16:00:24.820Z,20.56
2023-04-13T16:02:51.616Z,20.54
2023-04-13T16:05:21.084Z,20.56
2023-04-13T16:07:50.403Z,20.56
2023-04-13T16:10:19.250Z,20.56
2023-04-13T16:12:50.168Z,20.56
2023-04-13T16:15:17.132Z,20.53
2023-04-13T16:17:47.872Z,20.57
2023-04-13T16:20:21.232Z,20.56
2023-04-13T16:22:53.605Z,20.58
2023-04-13T16:25:22.431Z,20.56
2023-04-13T16:27:49.161Z,20.57
2023-04-13T16:30:17.696Z,20.58
2023-04-13T16:32:48.316Z,20.55
2023-04-13T16:35:14.981Z,20.59
2023-04-13T16:37:42.423Z,20.57
2023-04-13T16:40:12.695Z,20.57
2023-04-13T16:42:44.652Z,20.57
2023-04-13T16:45:15.082Z,20.56
2023-04-13T16:47:46.964Z,20.56
2023-04-13T16:50:15.789Z,20.57
2023-04-13T16:52:42.857Z,20.57
2023-04-13T16:55:14.255Z,20.55
2023-04-13T16:57:47.194Z,20.57
2023-04-13T17:00:18.273Z,20.58
2023-04-13T17:02:49.904Z,20.59
2023-04-13T17:05:18.915Z,20.57
2023-04-13T17:07:47.867Z,20.56
2023-04-13T17:10:18.925Z,20.56
2023-04-13T17:12:48.233Z,20.56
2023-04-13T17:15:15.000Z,20.55
2023-04-13T17:17:41.968Z,20.51
2023-04-13T17:20:09.371Z,20.55
2023-04-13T17:22:38.284Z,20.55
2023-04-13T17:25:07.800Z,20.55
2023-04-13T17:27:34.410Z,20.56
2023-04-13T17:30:03.773Z,20.57
2023-04-13T17:32:30.686Z,20.55
2023-04-13T17:34:57.395Z,20.56
2023-04-13T17:37:24.471Z,20.55
2023-04-13T17:39:51.501Z,20.57
2023-04-13T17:42:22.956Z,20.56
2023-04-13T17:44:51.993Z,20.57
2023-04-13T17:47:18.614Z,20.56
2023-04-13T17:49:47.481Z,20.54
2023-04-13T17:52:14.078Z,20.55
2023-04-13T17:54:40.801Z,20.55
2023-04-13T17:57:07.821Z,20.56
2023-04-13T17:59:36.951Z,20.55
2023-04-13T18:02:05.864Z,20.56
2023-04-13T18:04:35.380Z,20.54
2023-04-13T18:07:04.672Z,20.51
2023-04-13T18:09:33.654Z,20.54
2023-04-13T18:12:02.428Z,20.55
2023-04-13T18:14:30.210Z,20.54
2023-04-13T18:16:56.902Z,20.54
2023-04-13T18:19:27.650Z,20.56
2023-04-13T18:21:56.519Z,20.51
2023-04-13T18:24:23.239Z,20.55
2023-04-13T18:26:52.213Z,20.54
2023-04-13T18:29:19.094Z,20.53
2023-04-13T18:31:45.933Z,20.56
2023-04-13T18:34:15.828Z,20.52
2023-04-13T18:36:49.709Z,20.54
2023-04-13T18:39:17.098Z,20.54
2023-04-13T18:41:48.518Z,20.55
2023-04-13T18:44:15.505Z,20.54
2023-04-13T18:46:42.229Z,20.55
2023-04-13T18:49:11.035Z,20.55
2023-04-13T18:51:37.797Z,20.54
2023-04-13T18:54:04.617Z,20.53
2023-04-13T18:56:31.288Z,20.54
2023-04-13T18:58:57.994Z,20.54
2023-04-13T19:01:24.767Z,20.54
2023-04-13T19:03:52.557Z,20.54
2023-04-13T19:06:20.159Z,20.54
2023-04-13T19:08:46.871Z,20.53
2023-04-13T19:11:16.083Z,20.56
2023-04-13T19:13:44.839Z,20.55
2023-04-13T19:16:13.771Z,20.54
2023-04-13T19:18:45.775Z,20.55
2023-04-13T19:21:12.499Z,20.54
2023-04-13T19:23:40.423Z,20.54
2023-04-13T19:26:09.635Z,20.55
2023-04-13T19:28:38.516Z,20.54
2023-04-13T19:31:07.382Z,20.52
2023-04-13T19:33:36.241Z,20.51
2023-04-13T19:36:09.388Z,20.52
2023-04-13T19:38:36.073Z,20.52
2023-04-13T19:41:04.990Z,20.53
2023-04-13T19:43:31.596Z,20.51
2023-04-13T19:45:58.284Z,20.52
2023-04-13T19:48:25.410Z,20.52
2023-04-13T19:50:54.234Z,20.55
2023-04-13T19:53:20.924Z,20.51
2023-04-13T19:55:47.628Z,20.51
2023-04-13T19:58:17.553Z,20.51
2023-04-13T20:00:47.322Z,20.53
2023-04-13T20:03:14.292Z,20.52
2023-04-13T20:05:43.240Z,20.50
2023-04-13T20:08:14.900Z,20.51
2023-04-13T20:10:44.698Z,20.50
2023-04-13T20:13:13.626Z,20.49
2023-04-13T20:15:42.517Z,20.51
2023-04-13T20:18:11.592Z,20.50
2023-04-13T20:20:42.475Z,20.50
2023-04-13T20:23:11.586Z,20.48
2023-04-13T20:25:41.984Z,20.47
2023-04-13T20:28:10.235Z,20.48
2023-04-13T20:30:40.052Z,20.49
2023-04-13T20:33:07.416Z,20.48
2023-04-13T20:35:34.367Z,20.47
2023-04-13T20:38:04.878Z,20.49
2023-04-13T20:40:36.116Z,20.48
2023-04-13T20:43:03.609Z,20.46
2023-04-13T20:45:32.433Z,20.48
2023-04-13T20:50:37.307Z,20.48
2023-04-13T20:53:08.906Z,20.46
2023-04-13T20:55:39.308Z,20.46
2023-04-13T20:58:08.200Z,20.45
2023-04-13T21:00:35.273Z,20.46
2023-04-13T21:03:04.315Z,20.46
2023-04-13T21:05:31.021Z,20.45
2023-04-13T21:07:57.682Z,20.44
2023-04-13T21:10:26.752Z,20.47
2023-04-13T21:12:55.558Z,20.47
2023-04-13T21:15:30.952Z,20.45
2023-04-13T21:17:57.654Z,20.46
2023-04-13T21:20:26.456Z,20.46
2023-04-13T21:22:55.400Z,20.45
2023-04-13T21:25:24.353Z,20.45
2023-04-13T21:27:53.465Z,20.44
2023-04-13T21:30:20.253Z,20.45
2023-04-13T21:32:49.148Z,20.45
2023-04-13T21:35:17.489Z,20.45
2023-04-13T21:37:44.179Z,20.45
2023-04-13T21:40:13.215Z,20.45
2023-04-13T21:42:40.788Z,20.44
2023-04-13T21:45:09.251Z,20.43
2023-04-13T21:47:38.058Z,20.46
2023-04-13T21:50:05.571Z,20.43
2023-04-13T21:52:32.259Z,20.43
2023-04-13T21:55:03.264Z,20.42
2023-04-13T21:57:34.704Z,20.43
2023-04-13T22:00:05.588Z,20.44
2023-04-13T22:02:35.667Z,20.44
2023-04-13T22:05:02.418Z,20.43
2023-04-13T22:07:41.894Z,20.44
2023-04-13T22:10:10.524Z,20.44
2023-04-13T22:12:42.037Z,20.42
2023-04-13T22:15:11.941Z,20.43
2023-04-13T22:17:38.906Z,20.44
2023-04-13T22:20:06.053Z,20.44
2023-04-13T22:22:35.095Z,20.44
2023-04-13T22:25:01.726Z,20.43
2023-04-13T22:27:30.682Z,20.43
2023-04-13T22:29:57.578Z,20.44
2023-04-13T22:32:29.518Z,20.43
2023-04-13T22:34:57.084Z,20.43
2023-04-13T22:37:31.067Z,20.42
2023-04-13T22:40:00.551Z,20.41
2023-04-13T22:42:30.826Z,20.38
2023-04-13T22:44:59.795Z,20.41
2023-04-13T22:47:31.194Z,20.40
2023-04-13T22:50:03.390Z,20.40
2023-04-13T22:52:30.037Z,20.41
2023-04-13T22:54:56.731Z,20.40
2023-04-13T22:57:26.088Z,20.36
2023-04-13T22:59:55.168Z,20.41
2023-04-13T23:02:29.555Z,20.40
2023-04-13T23:05:01.250Z,20.39
2023-04-13T23:07:30.885Z,20.41
2023-04-13T23:09:57.569Z,20.37
2023-04-13T23:12:24.228Z,20.39
2023-04-13T23:14:56.716Z,20.39
2023-04-13T23:17:28.128Z,20.40
2023-04-13T23:19:59.936Z,20.39
2023-04-13T23:22:28.809Z,20.37
2023-04-13T23:24:58.988Z,20.39
2023-04-13T23:27:25.900Z,20.40
2023-04-13T23:29:55.059Z,20.39
2023-04-13T23:32:24.246Z,20.32
2023-04-13T23:34:54.488Z,20.39
2023-04-13T23:37:23.527Z,20.39
2023-04-13T23:39:50.506Z,20.37
2023-04-13T23:42:20.387Z,20.37
2023-04-13T23:44:47.063Z,20.39
2023-04-13T23:47:13.732Z,20.34
2023-04-13T23:49:42.496Z,20.39
2023-04-13T23:52:14.763Z,20.39
2023-04-13T23:54:41.461Z,20.38
2023-04-13T23:57:12.825Z,20.37
2023-04-13T23:59:40.424Z,20.37
